Time;durP1;ratioP1;P1;durP2;ratioP2;P2;SDS_P1;SDS_P2;PMS_P1;PMS_P2;Temp;Humidity;BMP_temperature;BMP_pressure;BME280_temperature;BME280_humidity;BME280_pressure;Samples;Min_cycle;Max_cycle;Signal;HPM_P1;HPM_P2
2023/11/02 00:00:27;;;;;;;3.60;2.03;;;11.80;99.90;;;;;;4974743;28;20508;-62
2023/11/02 00:02:57;;;;;;;5.87;1.83;;;11.80;99.90;;;;;;4968073;28;20564;-62
2023/11/02 00:05:54;;;;;;;3.80;2.30;;;11.80;99.90;;;;;;4974269;28;20856;-62
2023/11/02 00:08:32;;;;;;;4.53;2.70;;;11.80;99.90;;;;;;4967291;28;20474;-61
2023/11/02 00:11:03;;;;;;;4.00;2.20;;;11.80;99.90;;;;;;4961790;28;20497;-62
2023/11/02 00:13:31;;;;;;;1.77;1.47;;;11.80;99.90;;;;;;4972133;28;21170;-62
2023/11/02 00:16:02;;;;;;;4.70;1.70;;;11.80;99.90;;;;;;4965152;28;20500;-62
2023/11/02 00:18:32;;;;;;;2.63;1.93;;;11.70;99.90;;;;;;4955572;28;20498;-64
2023/11/02 00:21:00;;;;;;;2.90;2.27;;;11.70;99.90;;;;;;4957945;28;20486;-63
2023/11/02 00:23:39;;;;;;;3.53;1.50;;;11.70;99.90;;;;;;4975728;28;20616;-64
2023/11/02 00:26:07;;;;;;;2.40;2.00;;;11.70;99.90;;;;;;4974470;28;20472;-61
2023/11/02 00:28:37;;;;;;;3.73;1.83;;;11.60;99.90;;;;;;4975752;28;20887;-62
2023/11/02 00:31:06;;;;;;;3.40;1.97;;;11.60;99.90;;;;;;4974357;28;20548;-61
2023/11/02 00:33:34;;;;;;;2.80;2.00;;;11.50;99.90;;;;;;4970252;28;20489;-62
2023/11/02 00:36:03;;;;;;;2.67;1.70;;;11.50;99.90;;;;;;4970640;28;20624;-62
2023/11/02 00:38:32;;;;;;;4.37;2.10;;;11.50;99.90;;;;;;4959261;28;20501;-61
2023/11/02 00:41:01;;;;;;;1.80;1.60;;;11.50;99.90;;;;;;4957123;28;21041;-63
2023/11/02 00:43:29;;;;;;;2.30;2.10;;;11.50;99.90;;;;;;4955096;28;20595;-61
2023/11/02 00:45:57;;;;;;;3.27;2.13;;;11.40;99.90;;;;;;4971960;28;20478;-60
2023/11/02 00:48:29;;;;;;;5.77;2.40;;;11.40;99.90;;;;;;4974625;28;20476;-63
2023/11/02 00:51:19;;;;;;;1.97;1.53;;;11.40;99.90;;;;;;4975010;28;20474;-62
2023/11/02 00:53:54;;;;;;;5.40;1.57;;;11.40;99.90;;;;;;4970417;28;20486;-62
2023/11/02 00:56:24;;;;;;;4.47;2.00;;;11.40;99.90;;;;;;4961187;28;20995;-62
2023/11/02 00:58:53;;;;;;;2.77;1.60;;;11.40;99.90;;;;;;4967506;28;20504;-62
2023/11/02 01:01:23;;;;;;;3.63;1.73;;;11.40;99.90;;;;;;4968505;28;20850;-63
2023/11/02 01:03:54;;;;;;;2.10;1.60;;;11.40;99.90;;;;;;4958916;28;20872;-61
2023/11/02 01:06:26;;;;;;;3.37;2.17;;;11.40;99.90;;;;;;4960887;28;20493;-63
2023/11/02 01:08:59;;;;;;;2.30;2.00;;;11.30;99.90;;;;;;4959293;28;20470;-62
2023/11/02 01:11:35;;;;;;;2.00;1.60;;;11.30;99.90;;;;;;4961401;28;21194;-63
2023/11/02 01:14:26;;;;;;;5.70;2.10;;;11.40;99.90;;;;;;4954890;28;20497;-63
2023/11/02 01:16:54;;;;;;;2.07;1.43;;;11.30;99.90;;;;;;4961730;28;20478;-62
2023/11/02 01:19:48;;;;;;;2.73;1.70;;;11.30;99.90;;;;;;4963991;28;20490;-63
2023/11/02 01:22:41;;;;;;;1.87;1.70;;;11.30;99.90;;;;;;4956576;28;20576;-62
2023/11/02 01:25:12;;;;;;;1.87;1.67;;;11.20;99.90;;;;;;4960870;28;20498;-64
2023/11/02 01:27:41;;;;;;;1.97;1.87;;;11.30;99.90;;;;;;4972051;28;20481;-62
2023/11/02 01:30:30;;;;;;;3.03;1.73;;;11.20;99.90;;;;;;4977697;28;20465;-62
2023/11/02 01:33:00;;;;;;;3.27;1.87;;;11.20;99.90;;;;;;4971431;28;20488;-63
2023/11/02 01:35:41;;;;;;;3.00;2.13;;;11.20;99.90;;;;;;4967096;28;20544;-62
2023/11/02 01:38:09;;;;;;;4.43;2.00;;;11.10;99.90;;;;;;4957999;28;20478;-62
2023/11/02 01:40:51;;;;;;;2.33;1.80;;;11.10;99.90;;;;;;4960017;28;20465;-62
2023/11/02 01:43:24;;;;;;;1.90;1.80;;;11.10;99.90;;;;;;4955317;28;20684;-62
2023/11/02 01:45:57;;;;;;;1.87;1.77;;;11.10;99.90;;;;;;4956709;28;20968;-62
2023/11/02 01:48:32;;;;;;;3.53;1.60;;;11.10;99.90;;;;;;4966219;28;20568;-63
2023/11/02 01:51:04;;;;;;;2.67;2.00;;;11.10;99.90;;;;;;4956283;28;20474;-63
2023/11/02 01:53:42;;;;;;;3.20;1.73;;;11.00;99.90;;;;;;4958928;28;20976;-63
2023/11/02 01:56:21;;;;;;;2.60;1.60;;;11.00;99.90;;;;;;4949827;28;20544;-61
2023/11/02 01:59:13;;;;;;;2.10;1.60;;;11.00;99.90;;;;;;4955451;28;20501;-62
2023/11/02 02:01:56;;;;;;;3.80;1.80;;;11.00;99.90;;;;;;4947660;28;21195;-63
2023/11/02 02:04:37;;;;;;;10.03;2.00;;;11.00;99.90;;;;;;4960894;28;20623;-61
2023/11/02 02:07:19;;;;;;;3.83;1.80;;;10.90;99.90;;;;;;4960989;28;20477;-63
2023/11/02 02:09:59;;;;;;;2.80;1.67;;;11.00;99.90;;;;;;4973333;28;20473;-64
2023/11/02 02:12:43;;;;;;;2.17;1.80;;;10.90;99.90;;;;;;4973426;28;21064;-64
2023/11/02 02:15:19;;;;;;;2.50;2.13;;;10.90;99.90;;;;;;4954862;28;20478;-61
2023/11/02 02:17:58;;;;;;;2.10;1.70;;;10.80;99.90;;;;;;4958264;28;20540;-61
2023/11/02 02:20:32;;;;;;;1.80;1.70;;;10.80;99.90;;;;;;4974606;28;20492;-62
2023/11/02 02:23:08;;;;;;;2.77;2.00;;;10.80;99.90;;;;;;4960745;28;20494;-61
2023/11/02 02:25:45;;;;;;;3.73;1.53;;;10.80;99.90;;;;;;4971143;28;20482;-62
2023/11/02 02:28:36;;;;;;;2.53;1.70;;;10.70;99.90;;;;;;4971320;28;20472;-63
2023/11/02 02:31:37;;;;;;;3.53;1.80;;;10.80;99.90;;;;;;4964080;28;20484;-61
2023/11/02 02:34:45;;;;;;;1.70;1.60;;;10.80;99.90;;;;;;4967726;28;20493;-62
2023/11/02 02:37:17;;;;;;;2.77;1.70;;;10.70;99.90;;;;;;4949644;28;20989;-62
2023/11/02 02:39:51;;;;;;;3.00;1.73;;;10.70;99.90;;;;;;4971036;28;21163;-61
2023/11/02 02:42:23;;;;;;;2.30;1.60;;;10.70;99.90;;;;;;4966886;28;20503;-62
2023/11/02 02:44:52;;;;;;;3.70;1.90;;;10.70;99.90;;;;;;4970762;28;20631;-62
2023/11/02 02:47:23;;;;;;;2.30;2.07;;;10.70;99.90;;;;;;4958246;28;20553;-63
2023/11/02 02:49:53;;;;;;;1.50;1.40;;;10.70;99.90;;;;;;4959144;28;20581;-62
2023/11/02 02:52:24;;;;;;;3.00;1.80;;;10.60;99.90;;;;;;4958873;28;20508;-63
2023/11/02 02:54:54;;;;;;;2.40;1.77;;;10.60;99.90;;;;;;4956637;28;20577;-63
2023/11/02 02:57:28;;;;;;;2.60;1.90;;;10.60;99.90;;;;;;4967208;28;20560;-64
2023/11/02 03:00:00;;;;;;;2.27;1.53;;;10.60;99.90;;;;;;4966947;28;20523;-62
2023/11/02 03:02:32;;;;;;;2.03;1.50;;;10.50;99.90;;;;;;4965825;28;20500;-62
2023/11/02 03:05:00;;;;;;;3.00;1.50;;;10.50;99.90;;;;;;4965999;28;20493;-64
2023/11/02 03:07:32;;;;;;;2.70;1.57;;;10.40;99.90;;;;;;4970920;28;20473;-63
2023/11/02 03:10:03;;;;;;;1.70;1.53;;;10.40;99.90;;;;;;4962695;28;20467;-63
2023/11/02 03:12:34;;;;;;;2.37;1.70;;;10.40;99.90;;;;;;4972059;28;20493;-63
2023/11/02 03:15:07;;;;;;;2.43;1.90;;;10.40;99.90;;;;;;4964246;28;20490;-62
2023/11/02 03:17:56;;;;;;;1.60;1.50;;;10.40;99.90;;;;;;4970681;28;20497;-63
2023/11/02 03:20:25;;;;;;;2.23;1.70;;;10.40;99.90;;;;;;4960126;28;20516;-64
2023/11/02 03:23:00;;;;;;;2.20;1.93;;;10.40;99.90;;;;;;4943436;28;20571;-61
2023/11/02 03:25:38;;;;;;;2.63;1.80;;;10.30;99.90;;;;;;4964256;28;20504;-63
2023/11/02 03:28:12;;;;;;;2.00;1.50;;;10.30;99.90;;;;;;4967329;28;20561;-63
2023/11/02 03:30:52;;;;;;;2.10;1.70;;;10.30;99.90;;;;;;4972511;28;20469;-62
2023/11/02 03:33:29;;;;;;;3.50;1.67;;;10.30;99.90;;;;;;4965614;28;21072;-63
2023/11/02 03:36:05;;;;;;;2.17;1.90;;;10.30;99.90;;;;;;4971718;28;20479;-68
2023/11/02 03:38:46;;;;;;;1.70;1.60;;;10.30;99.90;;;;;;4972223;28;20479;-62
2023/11/02 03:41:23;;;;;;;4.33;2.27;;;10.20;99.90;;;;;;4964267;28;20501;-63
2023/11/02 03:44:02;;;;;;;2.40;1.93;;;10.20;99.90;;;;;;4965921;28;20584;-63
2023/11/02 03:46:43;;;;;;;2.00;1.67;;;10.20;99.90;;;;;;4973906;28;20478;-62
2023/11/02 03:49:22;;;;;;;3.23;1.90;;;10.20;99.90;;;;;;4968641;28;20476;-62
2023/11/02 03:52:02;;;;;;;2.20;1.67;;;10.20;99.90;;;;;;4964847;28;20568;-63
2023/11/02 03:54:54;;;;;;;2.30;1.47;;;10.10;99.90;;;;;;4959626;28;20925;-63
2023/11/02 03:57:30;;;;;;;5.23;2.37;;;10.10;99.90;;;;;;4971118;28;20513;-63
2023/11/02 04:00:06;;;;;;;2.53;1.80;;;10.10;99.90;;;;;;4968889;28;21048;-62
2023/11/02 04:02:38;;;;;;;1.60;1.50;;;10.10;99.90;;;;;;4968607;28;20488;-62
2023/11/02 04:05:14;;;;;;;2.03;1.60;;;10.10;99.90;;;;;;4973625;28;20509;-62
2023/11/02 04:07:59;;;;;;;1.53;1.43;;;10.10;99.90;;;;;;4974619;28;20515;-62
2023/11/02 04:10:31;;;;;;;3.80;2.07;;;10.10;99.90;;;;;;4970863;28;20499;-61
2023/11/02 04:13:17;;;;;;;2.97;1.50;;;10.00;99.90;;;;;;4960870;28;20516;-64
2023/11/02 04:15:45;;;;;;;1.90;1.20;;;10.00;99.90;;;;;;4967671;28;20560;-61
2023/11/02 04:18:13;;;;;;;1.97;1.70;;;9.90;99.90;;;;;;4967566;28;20478;-63
2023/11/02 04:20:42;;;;;;;3.10;1.77;;;9.90;99.90;;;;;;4975970;28;20490;-62
2023/11/02 04:23:11;;;;;;;2.43;1.90;;;9.90;99.90;;;;;;4966245;28;21292;-62
2023/11/02 04:25:40;;;;;;;1.87;1.63;;;9.80;99.90;;;;;;4973844;28;21341;-62
2023/11/02 04:28:08;;;;;;;3.73;1.80;;;9.80;99.90;;;;;;4974710;28;20473;-62
2023/11/02 04:30:37;;;;;;;1.90;1.70;;;9.80;99.90;;;;;;4967142;28;20481;-63
2023/11/02 04:33:06;;;;;;;3.17;1.60;;;9.80;99.90;;;;;;4964441;28;20496;-62
2023/11/02 04:35:36;;;;;;;3.70;2.10;;;9.80;99.90;;;;;;4980446;28;20523;-63
2023/11/02 04:38:05;;;;;;;3.20;1.60;;;9.80;99.90;;;;;;4969998;28;20473;-62
2023/11/02 04:40:33;;;;;;;2.07;1.67;;;9.80;99.90;;;;;;4976481;28;20501;-62
2023/11/02 04:43:03;;;;;;;2.63;1.90;;;9.80;99.90;;;;;;4971603;28;20942;-62
2023/11/02 04:45:33;;;;;;;2.97;1.60;;;9.70;99.90;;;;;;4974067;28;20505;-63
2023/11/02 04:48:03;;;;;;;2.60;1.60;;;9.70;99.90;;;;;;4966915;28;20478;-63
2023/11/02 04:50:31;;;;;;;2.00;1.70;;;9.70;99.90;;;;;;4968495;28;20549;-62
2023/11/02 04:53:01;;;;;;;2.77;1.93;;;9.60;99.90;;;;;;4962743;28;20932;-61
2023/11/02 04:55:29;;;;;;;2.73;1.93;;;9.60;99.90;;;;;;4974810;28;20473;-62
2023/11/02 04:57:57;;;;;;;3.50;1.67;;;9.60;99.90;;;;;;4965151;28;21259;-61
2023/11/02 05:00:26;;;;;;;1.73;1.63;;;9.60;99.90;;;;;;4962168;28;20502;-62
2023/11/02 05:02:54;;;;;;;1.67;1.57;;;9.60;99.90;;;;;;4967704;28;20498;-62
2023/11/02 05:05:22;;;;;;;2.50;1.40;;;9.60;99.90;;;;;;4978656;28;20472;-59
2023/11/02 05:07:50;;;;;;;1.83;1.73;;;9.50;99.90;;;;;;4971628;28;20503;-60
2023/11/02 05:10:18;;;;;;;2.83;1.50;;;9.50;99.90;;;;;;4970738;28;20562;-60
2023/11/02 05:12:46;;;;;;;1.73;1.63;;;9.50;99.90;;;;;;4973538;28;20581;-62
2023/11/02 05:15:14;;;;;;;2.17;1.60;;;9.50;99.90;;;;;;4975008;28;20862;-61
2023/11/02 05:17:44;;;;;;;2.33;1.70;;;9.50;99.90;;;;;;4971340;28;20481;-61
2023/11/02 05:20:12;;;;;;;3.40;1.80;;;9.50;99.90;;;;;;4974256;28;20470;-62
2023/11/02 05:22:40;;;;;;;3.30;1.50;;;9.50;99.90;;;;;;4980193;28;20600;-62
2023/11/02 05:25:08;;;;;;;3.63;1.83;;;9.50;99.90;;;;;;4967962;28;20516;-60
2023/11/02 05:27:36;;;;;;;1.53;1.43;;;9.50;99.90;;;;;;4965422;28;20962;-61
2023/11/02 05:30:06;;;;;;;3.17;1.50;;;9.50;99.90;;;;;;4967683;28;20476;-60
2023/11/02 05:32:34;;;;;;;2.93;1.50;;;9.50;99.90;;;;;;4976239;28;20974;-63
2023/11/02 05:35:04;;;;;;;2.43;2.17;;;9.40;99.90;;;;;;4973405;28;20584;-59
2023/11/02 05:37:32;;;;;;;1.43;1.33;;;9.50;99.90;;;;;;4968730;28;20558;-61
2023/11/02 05:40:00;;;;;;;4.73;1.70;;;9.50;99.90;;;;;;4969506;28;20914;-61
2023/11/02 05:42:28;;;;;;;2.03;1.83;;;9.50;99.90;;;;;;4969226;28;20854;-64
2023/11/02 05:44:56;;;;;;;2.20;1.40;;;9.40;99.90;;;;;;4956660;28;20584;-62
2023/11/02 05:47:24;;;;;;;1.60;1.50;;;9.40;99.90;;;;;;4957092;28;20946;-62
2023/11/02 05:49:52;;;;;;;1.63;1.53;;;9.40;99.90;;;;;;4964704;28;21057;-61
2023/11/02 05:52:21;;;;;;;3.30;1.53;;;9.40;99.90;;;;;;4961958;28;20496;-61
2023/11/02 05:54:49;;;;;;;2.83;1.70;;;9.50;99.90;;;;;;4971541;28;20513;-61
2023/11/02 05:57:17;;;;;;;4.53;1.63;;;9.50;99.90;;;;;;4974884;28;20561;-62
2023/11/02 05:59:45;;;;;;;5.20;1.80;;;9.50;99.90;;;;;;4967908;28;20505;-61
2023/11/02 06:02:13;;;;;;;2.40;1.87;;;9.50;99.90;;;;;;4959952;28;20769;-61
2023/11/02 06:04:41;;;;;;;1.73;1.53;;;9.50;99.90;;;;;;4967024;28;20498;-63
2023/11/02 06:07:09;;;;;;;5.33;1.93;;;9.50;99.90;;;;;;4956750;28;20913;-61
2023/11/02 06:09:39;;;;;;;3.10;1.47;;;9.60;99.90;;;;;;4951731;28;20480;-62
2023/11/02 06:12:07;;;;;;;2.37;1.40;;;9.60;99.90;;;;;;4960718;28;20474;-61
2023/11/02 06:14:35;;;;;;;2.07;1.73;;;9.60;99.90;;;;;;4962799;28;20500;-61
2023/11/02 06:17:04;;;;;;;1.80;1.63;;;9.60;99.90;;;;;;4951368;28;20493;-61
2023/11/02 06:19:32;;;;;;;1.60;1.50;;;9.60;99.90;;;;;;4947049;28;20473;-61
2023/11/02 06:22:00;;;;;;;1.80;1.70;;;9.60;99.90;;;;;;4965239;28;20505;-62
2023/11/02 06:24:28;;;;;;;1.60;1.50;;;9.60;99.90;;;;;;4976740;28;22624;-62
2023/11/02 06:26:57;;;;;;;1.80;1.63;;;9.70;99.90;;;;;;4955793;28;20478;-60
2023/11/02 06:29:25;;;;;;;2.20;1.70;;;9.70;99.90;;;;;;4964543;28;20497;-61
2023/11/02 06:31:53;;;;;;;3.70;1.67;;;9.70;99.90;;;;;;4957893;28;20519;-61
2023/11/02 06:34:21;;;;;;;2.33;1.67;;;9.70;99.90;;;;;;4974681;28;20589;-61
2023/11/02 06:36:49;;;;;;;2.30;1.83;;;9.70;99.90;;;;;;4971477;28;20497;-61
2023/11/02 06:39:20;;;;;;;2.10;1.57;;;9.70;99.90;;;;;;4973860;28;20497;-61
2023/11/02 06:41:48;;;;;;;2.33;1.80;;;9.70;99.90;;;;;;4962908;28;21054;-62
2023/11/02 06:44:18;;;;;;;1.83;1.67;;;9.70;99.90;;;;;;4955420;28;20493;-60
2023/11/02 06:46:47;;;;;;;2.43;1.40;;;9.70;99.90;;;;;;4954375;28;20475;-60
2023/11/02 06:49:15;;;;;;;1.87;1.67;;;9.80;99.90;;;;;;4957709;28;20474;-62
2023/11/02 06:51:43;;;;;;;2.00;1.53;;;9.80;99.90;;;;;;4957859;28;20478;-62
2023/11/02 06:54:11;;;;;;;1.60;1.33;;;9.80;99.90;;;;;;4961138;28;20526;-61
2023/11/02 06:56:39;;;;;;;3.20;1.40;;;9.80;99.90;;;;;;4956859;28;20474;-61
2023/11/02 06:59:07;;;;;;;2.60;1.60;;;9.80;99.90;;;;;;4976812;28;20517;-61
2023/11/02 07:01:37;;;;;;;1.63;1.40;;;9.80;99.90;;;;;;4952669;28;20582;-61
2023/11/02 07:04:05;;;;;;;2.47;1.70;;;9.90;99.90;;;;;;4948158;28;20623;-62
2023/11/02 07:06:33;;;;;;;2.80;1.40;;;9.90;99.90;;;;;;4951800;28;21055;-62
2023/11/02 07:09:01;;;;;;;4.33;1.50;;;9.90;99.90;;;;;;4956949;28;20514;-61
2023/11/02 07:11:30;;;;;;;1.63;1.33;;;9.90;99.90;;;;;;4963781;28;20942;-62
2023/11/02 07:13:58;;;;;;;2.70;1.70;;;9.90;99.90;;;;;;4952022;28;20492;-61
2023/11/02 07:16:26;;;;;;;2.30;1.60;;;9.90;99.90;;;;;;4956937;28;20539;-62
2023/11/02 07:18:58;;;;;;;4.43;1.83;;;9.90;99.90;;;;;;4954700;28;20520;-62
2023/11/02 07:21:26;;;;;;;2.43;1.50;;;9.90;99.90;;;;;;4975083;28;20520;-61
2023/11/02 07:23:54;;;;;;;2.17;1.50;;;9.90;99.90;;;;;;4972348;28;20515;-60
2023/11/02 07:26:22;;;;;;;3.07;1.40;;;9.90;99.90;;;;;;4971503;28;20501;-62
2023/11/02 07:28:50;;;;;;;1.63;1.40;;;9.90;99.90;;;;;;4976004;28;20501;-62
2023/11/02 07:31:18;;;;;;;1.97;1.60;;;9.90;99.90;;;;;;4967701;28;20541;-62
2023/11/02 07:33:46;;;;;;;2.43;1.80;;;10.00;99.90;;;;;;4970267;28;20497;-62
2023/11/02 07:36:16;;;;;;;1.80;1.70;;;10.00;99.90;;;;;;4954327;28;20473;-62
2023/11/02 07:38:53;;;;;;;3.67;1.80;;;10.00;99.90;;;;;;4955901;28;20473;-60
2023/11/02 07:41:21;;;;;;;1.67;1.57;;;10.00;99.90;;;;;;4958432;28;20868;-62
2023/11/02 07:43:49;;;;;;;1.80;1.40;;;10.10;99.90;;;;;;4963574;28;20493;-62
2023/11/02 07:46:17;;;;;;;1.97;1.60;;;10.10;99.90;;;;;;4955368;28;21619;-62
2023/11/02 07:48:45;;;;;;;2.90;1.60;;;10.10;99.90;;;;;;4953321;28;20481;-59
2023/11/02 07:51:15;;;;;;;2.37;1.53;;;10.10;99.90;;;;;;4955000;28;20555;-61
2023/11/02 07:53:44;;;;;;;1.70;1.50;;;10.10;99.90;;;;;;4955105;28;20496;-62
2023/11/02 07:56:12;;;;;;;2.50;1.50;;;10.20;99.90;;;;;;4954483;28;20718;-62
2023/11/02 07:58:42;;;;;;;2.30;1.27;;;10.20;99.90;;;;;;4962396;28;20486;-62
2023/11/02 08:01:10;;;;;;;2.37;1.37;;;10.20;99.90;;;;;;4955044;28;21592;-62
2023/11/02 08:03:38;;;;;;;1.40;1.20;;;10.30;99.90;;;;;;4957709;28;20521;-62
2023/11/02 08:06:07;;;;;;;2.90;1.30;;;10.30;99.90;;;;;;4955503;28;20469;-61
2023/11/02 08:08:37;;;;;;;3.83;1.53;;;10.40;99.90;;;;;;4951573;28;20482;-61
2023/11/02 08:11:06;;;;;;;2.33;1.20;;;10.30;99.90;;;;;;4971246;28;20474;-62
2023/11/02 08:13:34;;;;;;;2.43;1.07;;;10.40;99.90;;;;;;4968247;28;20589;-62
2023/11/02 08:16:02;;;;;;;1.20;1.10;;;10.40;99.90;;;;;;4965955;28;20488;-62
2023/11/02 08:18:30;;;;;;;2.70;1.10;;;10.40;99.90;;;;;;4972624;28;21217;-62
2023/11/02 08:21:07;;;;;;;1.20;1.07;;;10.50;99.90;;;;;;4966747;28;20487;-61
2023/11/02 08:23:36;;;;;;;1.83;1.10;;;10.60;99.90;;;;;;4968233;28;21029;-62
2023/11/02 08:26:05;;;;;;;2.03;1.40;;;10.60;99.90;;;;;;4964510;28;20473;-62
2023/11/02 08:28:33;;;;;;;2.20;1.50;;;10.60;99.90;;;;;;4973796;28;20477;-62
2023/11/02 08:31:01;;;;;;;1.90;1.23;;;10.60;99.90;;;;;;4972168;28;20474;-60
2023/11/02 08:33:29;;;;;;;1.47;1.30;;;10.70;99.90;;;;;;4968598;28;20568;-62
2023/11/02 08:36:03;;;;;;;1.90;1.13;;;10.70;99.90;;;;;;4966821;28;20975;-62
2023/11/02 08:38:31;;;;;;;7.23;1.73;;;10.70;99.90;;;;;;4960634;28;20469;-61
2023/11/02 08:41:01;;;;;;;3.20;1.30;;;10.70;99.90;;;;;;4963422;28;20473;-62
2023/11/02 08:43:30;;;;;;;1.93;1.30;;;10.80;99.90;;;;;;4969667;28;20580;-62
2023/11/02 08:45:58;;;;;;;1.23;0.90;;;10.80;99.90;;;;;;4970334;28;20548;-63
2023/11/02 08:48:26;;;;;;;2.80;1.20;;;10.80;99.90;;;;;;4975541;28;20593;-63
2023/11/02 08:50:55;;;;;;;2.03;1.30;;;10.80;99.90;;;;;;4971397;28;20470;-63
2023/11/02 08:53:23;;;;;;;1.00;1.00;;;10.90;99.90;;;;;;4973682;28;20497;-62
2023/11/02 08:55:51;;;;;;;4.67;1.30;;;10.90;99.90;;;;;;4966138;28;20560;-61
2023/11/02 08:58:20;;;;;;;2.27;1.00;;;10.90;99.90;;;;;;4965787;28;20524;-62
2023/11/02 09:00:48;;;;;;;3.40;1.10;;;10.90;99.90;;;;;;4975664;28;20524;-64
2023/11/02 09:03:16;;;;;;;3.00;1.27;;;10.90;99.90;;;;;;4977088;28;20563;-61
2023/11/02 09:05:45;;;;;;;2.37;1.30;;;11.00;99.90;;;;;;4969195;28;20483;-64
2023/11/02 09:08:13;;;;;;;2.23;1.30;;;11.00;99.90;;;;;;4969665;28;21097;-65
2023/11/02 09:10:41;;;;;;;1.73;1.00;;;11.00;99.90;;;;;;4976954;28;20505;-65
2023/11/02 09:13:09;;;;;;;3.77;1.23;;;11.10;99.90;;;;;;4978346;28;20523;-65
2023/11/02 09:15:38;;;;;;;3.60;1.23;;;11.10;99.90;;;;;;4973464;28;20857;-65
2023/11/02 09:18:07;;;;;;;2.10;1.20;;;11.10;99.90;;;;;;4975496;28;20548;-65
2023/11/02 09:20:35;;;;;;;1.77;1.20;;;11.10;99.90;;;;;;4965945;28;20531;-66
2023/11/02 09:23:03;;;;;;;1.80;1.70;;;11.10;99.90;;;;;;4969743;28;20502;-66
2023/11/02 09:25:32;;;;;;;2.27;1.10;;;11.10;99.90;;;;;;4973962;28;20497;-64
2023/11/02 09:28:00;;;;;;;1.67;1.30;;;11.20;99.90;;;;;;4973657;28;21068;-65
2023/11/02 09:30:28;;;;;;;1.13;1.03;;;11.20;99.90;;;;;;4970634;28;20561;-64
2023/11/02 09:32:57;;;;;;;1.83;1.10;;;11.20;99.90;;;;;;4970397;28;20569;-64
2023/11/02 09:35:26;;;;;;;1.93;1.10;;;11.20;99.90;;;;;;4976801;28;20961;-65
2023/11/02 09:37:54;;;;;;;1.47;1.37;;;11.30;99.90;;;;;;4969960;28;20924;-65
2023/11/02 09:40:22;;;;;;;0.90;0.90;;;11.30;99.90;;;;;;4973985;28;20560;-65
2023/11/02 09:42:50;;;;;;;1.03;0.93;;;11.30;99.90;;;;;;4970150;28;20580;-64
2023/11/02 09:45:19;;;;;;;1.90;1.20;;;11.30;99.90;;;;;;4972530;28;20529;-65
2023/11/02 09:47:47;;;;;;;3.70;1.00;;;11.40;99.90;;;;;;4971741;28;20549;-64
2023/11/02 09:50:17;;;;;;;2.53;1.20;;;11.40;99.90;;;;;;4976437;28;20524;-64
2023/11/02 09:52:47;;;;;;;1.90;1.30;;;11.50;99.90;;;;;;4973530;28;20502;-65
2023/11/02 09:55:17;;;;;;;1.40;1.00;;;11.50;99.90;;;;;;4968606;28;20569;-64
2023/11/02 09:57:46;;;;;;;1.27;1.10;;;11.50;99.90;;;;;;4975726;28;20477;-65
2023/11/02 10:00:17;;;;;;;2.13;1.30;;;11.50;99.90;;;;;;4970424;28;20472;-68
2023/11/02 10:02:47;;;;;;;3.07;1.57;;;11.50;99.90;;;;;;4969561;28;20494;-64
2023/11/02 10:05:18;;;;;;;1.10;1.00;;;11.60;99.90;;;;;;4968098;28;20480;-64
2023/11/02 10:07:50;;;;;;;4.97;1.20;;;11.60;99.90;;;;;;4971557;28;20476;-65
2023/11/02 10:10:18;;;;;;;1.67;0.83;;;11.70;99.90;;;;;;4971369;28;20482;-65
2023/11/02 10:12:46;;;;;;;1.27;0.80;;;11.70;99.90;;;;;;4970774;28;20482;-64
2023/11/02 10:15:16;;;;;;;1.90;1.40;;;11.70;99.90;;;;;;4972656;28;20490;-64
2023/11/02 10:17:45;;;;;;;2.17;1.30;;;11.80;99.90;;;;;;4976997;28;20478;-64
2023/11/02 10:20:15;;;;;;;1.33;1.10;;;11.80;99.90;;;;;;4972915;28;20482;-64
2023/11/02 10:22:57;;;;;;;2.57;1.13;;;11.80;99.90;;;;;;4965704;28;21086;-65
2023/11/02 10:25:25;;;;;;;1.30;0.83;;;11.80;99.90;;;;;;4975082;28;20508;-65
2023/11/02 10:27:54;;;;;;;1.93;1.10;;;11.80;99.90;;;;;;4976631;28;20549;-64
2023/11/02 10:30:22;;;;;;;1.70;1.20;;;11.80;99.90;;;;;;4970422;28;21276;-64
2023/11/02 10:32:51;;;;;;;2.63;1.23;;;11.80;99.90;;;;;;4975278;28;20492;-64
2023/11/02 10:35:20;;;;;;;2.23;1.30;;;11.80;99.90;;;;;;4971271;28;20469;-65
2023/11/02 10:37:51;;;;;;;1.63;1.17;;;11.90;99.90;;;;;;4968132;28;20465;-64
2023/11/02 10:40:19;;;;;;;3.73;1.10;;;11.90;99.90;;;;;;4971933;28;20501;-65
2023/11/02 10:42:47;;;;;;;1.10;1.00;;;11.90;99.90;;;;;;4966265;28;20484;-63
2023/11/02 10:45:16;;;;;;;4.10;1.30;;;12.00;99.90;;;;;;4970301;28;20506;-64
2023/11/02 10:47:46;;;;;;;1.83;1.30;;;12.00;99.90;;;;;;4974801;28;20998;-63
2023/11/02 10:50:21;;;;;;;1.57;0.90;;;12.00;99.90;;;;;;4973288;28;20568;-63
2023/11/02 10:52:56;;;;;;;2.00;1.23;;;12.00;99.90;;;;;;4977059;28;20885;-64
2023/11/02 10:55:29;;;;;;;2.47;1.00;;;12.00;99.90;;;;;;4970538;28;20494;-70
2023/11/02 10:58:01;;;;;;;6.00;1.23;;;12.00;99.90;;;;;;4976473;28;20528;-65
2023/11/02 11:00:34;;;;;;;1.70;1.10;;;12.00;99.90;;;;;;4968380;28;20466;-66
2023/11/02 11:03:07;;;;;;;1.93;1.17;;;12.00;99.90;;;;;;4972689;28;20869;-65
2023/11/02 11:05:36;;;;;;;1.47;1.03;;;12.00;99.90;;;;;;4969351;28;20490;-63
2023/11/02 11:08:07;;;;;;;1.33;1.10;;;12.10;99.90;;;;;;4967368;28;20474;-64
2023/11/02 11:10:36;;;;;;;2.43;1.00;;;12.10;99.90;;;;;;4970144;28;20474;-65
2023/11/02 11:13:09;;;;;;;3.30;1.63;;;12.10;99.90;;;;;;4966069;28;21012;-64
2023/11/02 11:15:37;;;;;;;2.23;1.20;;;12.10;99.90;;;;;;4968112;28;20736;-64
2023/11/02 11:18:06;;;;;;;2.50;0.80;;;12.10;99.90;;;;;;4964131;28;20517;-65
2023/11/02 11:20:35;;;;;;;1.80;1.30;;;12.10;99.90;;;;;;4970113;28;20485;-65
2023/11/02 11:23:05;;;;;;;1.43;1.10;;;12.20;99.90;;;;;;4970579;28;20509;-65
2023/11/02 11:25:34;;;;;;;2.90;1.10;;;12.20;99.90;;;;;;4968704;28;20696;-64
2023/11/02 11:28:22;;;;;;;1.13;1.03;;;12.20;99.90;;;;;;4965810;28;20560;-64
2023/11/02 11:30:50;;;;;;;1.63;1.17;;;12.20;99.90;;;;;;4969666;28;20498;-64
2023/11/02 11:33:49;;;;;;;1.67;1.00;;;12.20;99.90;;;;;;4969272;28;20494;-65
2023/11/02 11:36:22;;;;;;;2.00;1.23;;;12.30;99.90;;;;;;4961494;28;20474;-65
2023/11/02 11:38:53;;;;;;;1.70;1.00;;;12.30;99.90;;;;;;4972152;28;20480;-64
2023/11/02 11:41:44;;;;;;;1.20;1.00;;;12.30;99.90;;;;;;4965511;28;20565;-65
2023/11/02 11:44:20;;;;;;;2.63;1.23;;;12.30;99.90;;;;;;4969824;28;20498;-65
2023/11/02 11:46:51;;;;;;;0.97;0.93;;;12.30;99.90;;;;;;4965553;28;20728;-65
2023/11/02 11:49:49;;;;;;;2.00;1.07;;;12.30;99.90;;;;;;4972392;28;20474;-66
2023/11/02 11:52:27;;;;;;;3.40;1.13;;;12.30;99.90;;;;;;4976231;28;20505;-64
2023/11/02 11:54:57;;;;;;;1.10;0.90;;;12.30;99.90;;;;;;4967155;28;20482;-64
2023/11/02 11:57:56;;;;;;;3.67;1.53;;;12.30;99.90;;;;;;4972431;28;20509;-64
2023/11/02 12:00:27;;;;;;;2.93;1.87;;;12.40;99.90;;;;;;4968937;28;20541;-64
2023/11/02 12:02:57;;;;;;;1.50;1.17;;;12.50;99.90;;;;;;4965289;28;20919;-65
2023/11/02 12:05:55;;;;;;;2.27;0.90;;;12.70;99.90;;;;;;4971378;28;20502;-65
2023/11/02 12:08:24;;;;;;;1.80;1.10;;;13.80;99.90;;;;;;4970544;28;20505;-64
2023/11/02 12:10:55;;;;;;;1.47;1.00;;;14.30;99.90;;;;;;4969070;28;20484;-65
2023/11/02 12:13:24;;;;;;;1.27;0.80;;;15.10;99.90;;;;;;4970785;28;20621;-65
2023/11/02 12:15:57;;;;;;;1.60;1.13;;;16.50;99.90;;;;;;4963984;28;20523;-65
2023/11/02 12:18:28;;;;;;;4.10;1.20;;;17.50;99.90;;;;;;4970691;28;20481;-65
2023/11/02 12:20:57;;;;;;;1.97;1.27;;;17.70;99.90;;;;;;4972755;28;20527;-65
2023/11/02 12:23:33;;;;;;;2.07;1.10;;;17.20;99.90;;;;;;4977990;28;21141;-64
2023/11/02 12:26:04;;;;;;;2.20;1.10;;;16.40;99.90;;;;;;4979228;28;20858;-64
2023/11/02 12:28:42;;;;;;;2.30;1.10;;;15.90;99.90;;;;;;4979213;28;20528;-65
2023/11/02 12:31:24;;;;;;;1.60;0.90;;;15.70;99.90;;;;;;4976077;28;20477;-65
2023/11/02 12:33:53;;;;;;;2.60;0.80;;;15.60;99.90;;;;;;4972158;28;20501;-64
2023/11/02 12:36:21;;;;;;;2.37;1.00;;;15.30;99.90;;;;;;4976098;28;20979;-65
2023/11/02 12:38:51;;;;;;;1.90;0.97;;;15.00;99.90;;;;;;4977756;28;20527;-64
2023/11/02 12:41:28;;;;;;;2.03;1.00;;;14.60;99.90;;;;;;4979056;28;20476;-64
2023/11/02 12:44:05;;;;;;;4.40;1.30;;;14.30;99.90;;;;;;4969429;28;20496;-66
2023/11/02 12:46:34;;;;;;;1.67;1.10;;;14.00;99.90;;;;;;4976324;28;20967;-64
2023/11/02 12:49:17;;;;;;;1.20;1.10;;;13.90;99.90;;;;;;4973995;28;20556;-66
2023/11/02 12:52:04;;;;;;;1.20;0.97;;;13.70;99.90;;;;;;4974695;28;20524;-65
2023/11/02 12:54:32;;;;;;;1.80;0.97;;;13.60;99.90;;;;;;4977987;28;20493;-64
2023/11/02 12:57:04;;;;;;;3.17;1.20;;;13.60;99.90;;;;;;4973708;28;20484;-64
2023/11/02 12:59:40;;;;;;;2.60;1.33;;;13.50;99.90;;;;;;4970737;28;20486;-64
2023/11/02 13:02:11;;;;;;;2.47;1.17;;;13.60;99.90;;;;;;4960187;28;21320;-64
2023/11/02 13:04:49;;;;;;;3.83;1.53;;;13.70;99.90;;;;;;4961540;28;21018;-64
2023/11/02 13:07:22;;;;;;;2.13;1.00;;;13.90;99.90;;;;;;4959472;28;20559;-65
2023/11/02 13:10:00;;;;;;;1.83;1.00;;;14.10;99.90;;;;;;4960343;28;20474;-66
2023/11/02 13:12:30;;;;;;;1.83;1.20;;;14.10;99.90;;;;;;4957618;28;20500;-65
2023/11/02 13:14:58;;;;;;;2.07;1.30;;;14.10;99.90;;;;;;4965403;28;21008;-65